createdAt,value
2022-09-28T00:00:16.652Z,100793.38
2022-09-28T00:02:47.075Z,100791.75
2022-09-28T00:05:17.955Z,100792.97
2022-09-28T00:07:48.300Z,100781.16
2022-09-28T00:10:23.399Z,100786.06
2022-09-28T00:12:56.054Z,100785.25
2022-09-28T00:15:26.792Z,100788.91
2022-09-28T00:17:57.036Z,100784.44
2022-09-28T00:20:27.421Z,100779.16
2022-09-28T00:22:57.724Z,100783.59
2022-09-28T00:25:30.523Z,100780.38
2022-09-28T00:28:00.598Z,100772.69
2022-09-28T00:30:30.954Z,100774.69
2022-09-28T00:33:01.131Z,100773.06
2022-09-28T00:35:31.841Z,100769.03
2022-09-28T00:38:03.188Z,100776.38
2022-09-28T00:40:35.264Z,100778.41
2022-09-28T00:43:21.318Z,100782.88
2022-09-28T00:46:01.562Z,100778.41
2022-09-28T00:48:37.224Z,100776.78
2022-09-28T00:51:14.241Z,100771.53
2022-09-28T00:53:47.549Z,100770.34
2022-09-28T00:56:24.347Z,100777.69
2022-09-28T00:58:57.066Z,100771.59
2022-09-28T01:01:27.272Z,100778.50
2022-09-28T01:03:57.836Z,100778.50
2022-09-28T01:06:35.544Z,100776.06
2022-09-28T01:09:09.529Z,100780.16
2022-09-28T01:11:42.635Z,100779.31
2022-09-28T01:14:17.875Z,100781.78
2022-09-28T01:17:01.041Z,100778.09
2022-09-28T01:20:08.967Z,100774.44
2022-09-28T01:23:27.364Z,100768.38
2022-09-28T01:26:18.642Z,100768.38
2022-09-28T01:28:54.606Z,100765.13
2022-09-28T01:31:32.820Z,100771.25
2022-09-28T01:34:13.653Z,100774.50
2022-09-28T01:36:51.080Z,100772.88
2022-09-28T01:39:28.870Z,100777.75
2022-09-28T01:42:07.898Z,100771.25
2022-09-28T01:44:45.566Z,100775.31
2022-09-28T01:47:20.001Z,100768.81
2022-09-28T01:49:57.612Z,100768.03
2022-09-28T01:52:36.290Z,100777.78
2022-09-28T01:55:15.660Z,100779.00
2022-09-28T01:57:54.808Z,100784.69
2022-09-28T02:00:28.700Z,100789.56
2022-09-28T02:03:06.773Z,100795.25
2022-09-28T02:05:41.342Z,100779.41
2022-09-28T02:08:20.275Z,100786.34
2022-09-28T02:10:58.276Z,100791.19
2022-09-28T02:13:37.211Z,100786.72
2022-09-28T02:16:16.430Z,100780.63
2022-09-28T02:18:47.990Z,100781.84
2022-09-28T02:21:27.388Z,100776.16
2022-09-28T02:24:03.884Z,100783.09
2022-09-28T02:26:39.267Z,100787.94
2022-09-28T02:29:11.085Z,100785.53
2022-09-28T02:31:41.880Z,100781.06
2022-09-28T02:34:12.358Z,100783.06
2022-09-28T02:36:42.764Z,100777.81
2022-09-28T02:39:18.427Z,100776.59
2022-09-28T02:42:02.008Z,100783.09
2022-09-28T02:44:58.002Z,100777.44
2022-09-28T02:47:47.340Z,100783.13
2022-09-28T02:50:34.145Z,100785.59
2022-09-28T02:53:46.272Z,100783.56
2022-09-28T02:56:44.008Z,100791.28
2022-09-28T02:59:33.733Z,100792.09
2022-09-28T03:02:16.178Z,100789.25
2022-09-28T03:05:02.201Z,100798.59
2022-09-28T03:07:38.778Z,100796.16
2022-09-28T03:10:19.139Z,100802.66
2022-09-28T03:12:53.507Z,100798.59
2022-09-28T03:15:27.120Z,100802.66
2022-09-28T03:17:59.917Z,100803.44
2022-09-28T03:20:31.876Z,100801.03
2022-09-28T03:25:53.083Z,100808.34
2022-09-28T03:28:24.057Z,100805.09
2022-09-28T03:30:54.280Z,100812.00
2022-09-28T03:33:26.639Z,100809.59
2022-09-28T03:35:56.912Z,100805.94
2022-09-28T03:38:27.496Z,100805.16
2022-09-28T03:40:58.827Z,100809.22
2022-09-28T03:43:30.131Z,100805.53
2022-09-28T03:46:02.386Z,100803.53
2022-09-28T03:48:37.389Z,100804.75
2022-09-28T03:51:10.612Z,100803.13
2022-09-28T03:53:41.000Z,100803.56
2022-09-28T03:56:17.861Z,100807.59
2022-09-28T03:58:48.517Z,100809.22
2022-09-28T04:01:19.196Z,100808.84
2022-09-28T04:03:56.842Z,100816.94
2022-09-28T04:06:28.114Z,100816.53
2022-09-28T04:08:58.708Z,100816.13
2022-09-28T04:11:38.526Z,100823.84
2022-09-28T04:14:18.726Z,100816.13
2022-09-28T04:16:48.848Z,100824.22
2022-09-28T04:19:21.004Z,100822.59
2022-09-28T04:21:52.375Z,100831.53
2022-09-28T04:24:22.578Z,100828.69
2022-09-28T04:27:13.927Z,100825.47
2022-09-28T04:29:44.348Z,100828.69
2022-09-28T04:32:14.966Z,100833.56
2022-09-28T04:34:46.794Z,100829.91
2022-09-28T04:37:17.644Z,100834.41
2022-09-28T04:39:48.674Z,100838.00
2022-09-28T04:42:19.118Z,100833.13
2022-09-28T04:44:51.444Z,100838.00
2022-09-28T04:47:21.679Z,100829.06
2022-09-28T04:49:56.458Z,100830.66
2022-09-28T04:52:27.285Z,100832.66
2022-09-28T04:54:57.187Z,100833.47
2022-09-28T04:57:27.353Z,100845.63
2022-09-28T04:59:57.455Z,100846.41
2022-09-28T05:02:28.149Z,100838.25
2022-09-28T05:05:00.670Z,100843.50
2022-09-28T05:07:31.725Z,100843.84
2022-09-28T05:10:01.982Z,100849.94
2022-09-28T05:12:32.288Z,100853.13
2022-09-28T05:15:02.842Z,100854.72
2022-09-28T05:17:33.170Z,100853.44
2022-09-28T05:20:05.831Z,100870.47
2022-09-28T05:22:36.844Z,100863.53
2022-09-28T05:25:07.927Z,100864.31
2022-09-28T05:27:37.956Z,100858.59
2022-09-28T05:30:11.247Z,100858.16
2022-09-28T05:32:43.303Z,100858.13
2022-09-28T05:35:15.103Z,100860.13
2022-09-28T05:37:45.621Z,100855.97
2022-09-28T05:40:16.587Z,100859.97
2022-09-28T05:42:47.016Z,100857.94
2022-09-28T05:45:17.642Z,100858.72
2022-09-28T05:47:48.060Z,100863.56
2022-09-28T05:50:20.805Z,100861.06
2022-09-28T05:53:00.466Z,100861.03
2022-09-28T05:55:31.665Z,100865.91
2022-09-28T05:58:02.700Z,100856.09
2022-09-28T06:00:35.630Z,100860.94
2022-09-28T06:03:09.679Z,100855.16
2022-09-28T06:05:42.322Z,100861.16
2022-09-28T06:08:13.635Z,100855.00
2022-09-28T06:10:44.231Z,100856.97
2022-09-28T06:13:14.854Z,100863.81
2022-09-28T06:15:46.740Z,100862.97
2022-09-28T06:18:17.896Z,100855.94
2022-09-28T06:20:50.143Z,100865.25
2022-09-28T06:23:20.431Z,100862.28
2022-09-28T06:25:50.344Z,100851.16
2022-09-28T06:28:20.585Z,100861.25
2022-09-28T06:30:50.650Z,100850.53
2022-09-28T06:33:20.877Z,100854.94
2022-09-28T06:35:52.844Z,100847.09
2022-09-28T06:38:22.770Z,100847.81
2022-09-28T06:40:52.743Z,100849.75
2022-09-28T06:43:23.105Z,100837.38
2022-09-28T06:45:55.810Z,100841.78
2022-09-28T06:48:26.110Z,100847.41
2022-09-28T06:50:58.134Z,100849.28
2022-09-28T06:53:29.398Z,100847.13
2022-09-28T06:55:59.589Z,100854.31
2022-09-28T06:58:30.156Z,100846.44
2022-09-28T07:01:01.517Z,100849.56
2022-09-28T07:03:31.913Z,100849.91
2022-09-28T07:06:05.334Z,100843.59
2022-09-28T07:08:35.356Z,100847.13
2022-09-28T07:11:09.838Z,100832.31
2022-09-28T07:13:56.244Z,100834.31
2022-09-28T07:16:34.002Z,100828.50
2022-09-28T07:19:17.427Z,100833.28
2022-09-28T07:22:01.397Z,100834.03
2022-09-28T07:24:33.951Z,100825.75
2022-09-28T07:27:05.471Z,100821.16
2022-09-28T07:29:35.672Z,100829.25
2022-09-28T07:32:06.034Z,100829.56
2022-09-28T07:34:40.266Z,100824.53
2022-09-28T07:37:13.712Z,100824.84
2022-09-28T07:40:00.987Z,100823.88
2022-09-28T07:42:31.511Z,100812.78
2022-09-28T07:45:01.474Z,100810.66
2022-09-28T07:47:35.096Z,100813.00
2022-09-28T07:50:07.796Z,100814.56
2022-09-28T07:52:39.964Z,100810.75
2022-09-28T07:55:11.731Z,100806.09
2022-09-28T07:57:42.373Z,100800.66
2022-09-28T08:00:14.682Z,100814.81
2022-09-28T08:02:44.688Z,100806.94
2022-09-28T08:05:14.910Z,100808.09
2022-09-28T08:07:48.311Z,100810.47
2022-09-28T08:10:18.947Z,100805.50
2022-09-28T08:12:49.593Z,100801.41
2022-09-28T08:15:20.132Z,100805.88
2022-09-28T08:17:51.530Z,100802.56
2022-09-28T08:20:38.316Z,100811.88
2022-09-28T08:23:12.666Z,100800.38
2022-09-28T08:25:43.316Z,100807.63
2022-09-28T08:28:14.679Z,100798.47
2022-09-28T08:30:45.627Z,100790.25
2022-09-28T08:33:18.048Z,100787.28
2022-09-28T08:35:48.844Z,100795.81
2022-09-28T08:38:21.430Z,100792.84
2022-09-28T08:41:06.645Z,100793.56
2022-09-28T08:44:24.415Z,100784.84
2022-09-28T08:47:01.402Z,100795.91
2022-09-28T08:49:42.240Z,100785.59
2022-09-28T08:52:19.303Z,100775.28
2022-09-28T08:55:00.407Z,100774.00
2022-09-28T08:57:38.714Z,100778.50
2022-09-28T09:00:17.169Z,100772.75
2022-09-28T09:02:47.621Z,100770.34
2022-09-28T09:05:22.940Z,100769.53
2022-09-28T09:08:26.594Z,100764.25
2022-09-28T09:11:12.773Z,100762.63
2022-09-28T09:14:33.879Z,100759.78
2022-09-28T09:17:20.808Z,100755.66
2022-09-28T09:20:01.281Z,100747.84
2022-09-28T09:22:42.972Z,100759.78
2022-09-28T09:25:24.017Z,100752.41
2022-09-28T09:28:23.767Z,100757.38
2022-09-28T09:31:11.430Z,100754.13
2022-09-28T09:34:24.596Z,100757.00
2022-09-28T09:37:22.536Z,100752.97
2022-09-28T09:40:25.168Z,100751.00
2022-09-28T09:43:30.978Z,100750.22
2022-09-28T09:46:19.401Z,100736.31
2022-09-28T09:48:58.968Z,100740.78
2022-09-28T09:51:44.339Z,100737.13
2022-09-28T09:54:24.449Z,100738.81
2022-09-28T09:57:02.367Z,100738.81
2022-09-28T09:59:40.264Z,100744.13
2022-09-28T10:02:27.743Z,100746.53
2022-09-28T10:05:05.134Z,100743.66
2022-09-28T10:07:46.035Z,100746.16
2022-09-28T10:10:24.410Z,100745.47
2022-09-28T10:12:56.172Z,100752.44
2022-09-28T10:15:31.764Z,100750.47
2022-09-28T10:18:08.001Z,100744.84
2022-09-28T10:20:43.192Z,100744.47
2022-09-28T10:23:24.361Z,100743.69
2022-09-28T10:26:00.247Z,100738.38
2022-09-28T10:28:43.348Z,100734.72
2022-09-28T10:31:48.822Z,100736.53
2022-09-28T10:34:26.892Z,100738.63
2022-09-28T10:37:01.099Z,100737.47
2022-09-28T10:39:37.095Z,100738.72
2022-09-28T10:42:12.303Z,100733.88
2022-09-28T10:45:05.761Z,100736.81
2022-09-28T10:47:39.144Z,100726.34
2022-09-28T10:50:25.082Z,100726.91
2022-09-28T10:52:55.609Z,100726.16
2022-09-28T10:55:33.617Z,100735.63
2022-09-28T10:58:26.334Z,100728.75
2022-09-28T11:01:04.779Z,100731.69
2022-09-28T11:03:44.609Z,100734.28
2022-09-28T11:06:15.815Z,100727.81
2022-09-28T11:08:48.079Z,100722.97
2022-09-28T11:11:21.835Z,100733.25
2022-09-28T11:13:55.861Z,100731.19
2022-09-28T11:16:32.426Z,100725.09
2022-09-28T11:19:28.865Z,100723.94
2022-09-28T11:21:59.466Z,100734.75
2022-09-28T11:24:33.154Z,100722.13
2022-09-28T11:27:03.632Z,100724.25
2022-09-28T11:29:46.701Z,100713.25
2022-09-28T11:32:18.547Z,100710.03
2022-09-28T11:34:59.648Z,100711.28
2022-09-28T11:37:53.294Z,100706.00
2022-09-28T11:40:42.967Z,100697.03
2022-09-28T11:43:31.112Z,100700.78
2022-09-28T11:46:10.448Z,100703.72
2022-09-28T11:48:47.664Z,100702.94
2022-09-28T11:51:28.930Z,100709.91
2022-09-28T11:54:14.732Z,100710.78
2022-09-28T11:56:50.649Z,100702.28
2022-09-28T11:59:30.597Z,100693.28
2022-09-28T12:02:05.855Z,100690.50
2022-09-28T12:04:43.405Z,100686.03
2022-09-28T12:07:23.816Z,100682.00
2022-09-28T12:10:01.361Z,100684.06
2022-09-28T12:12:40.131Z,100684.88
2022-09-28T12:15:22.310Z,100689.44
2022-09-28T12:17:58.429Z,100689.94
2022-09-28T12:20:34.189Z,100687.59
2022-09-28T12:23:16.387Z,100682.38
2022-09-28T12:25:54.401Z,100680.06
2022-09-28T12:28:37.172Z,100685.41
2022-09-28T12:31:18.296Z,100694.06
2022-09-28T12:33:53.506Z,100690.44
2022-09-28T12:36:49.250Z,100685.25
2022-09-28T12:39:57.631Z,100687.72
2022-09-28T12:43:03.814Z,100698.84
2022-09-28T12:46:17.964Z,100689.53
2022-09-28T12:50:13.736Z,100685.56
2022-09-28T12:52:36.412Z,100690.13
2022-09-28T12:55:45.887Z,100693.06
2022-09-28T12:58:52.111Z,100693.47
2022-09-28T13:02:04.188Z,100700.44
2022-09-28T13:05:10.410Z,100692.38
2022-09-28T13:07:51.296Z,100709.97
2022-09-28T13:10:33.232Z,100710.38
2022-09-28T13:13:33.435Z,100718.25
2022-09-28T13:16:17.884Z,100712.16
2022-09-28T13:19:01.702Z,100717.09
2022-09-28T13:21:46.371Z,100720.81
2022-09-28T13:24:32.688Z,100718.84
2022-09-28T13:27:13.975Z,100717.66
2022-09-28T13:29:48.545Z,100721.81
2022-09-28T13:32:21.838Z,100724.72
2022-09-28T13:34:55.242Z,100721.91
2022-09-28T13:37:29.478Z,100719.13
2022-09-28T13:40:06.490Z,100717.13
2022-09-28T13:43:21.936Z,100720.88
2022-09-28T13:46:17.025Z,100725.44
2022-09-28T13:49:02.027Z,100729.19
2022-09-28T13:51:55.864Z,100721.47
2022-09-28T13:54:53.067Z,100725.56
2022-09-28T13:57:32.617Z,100711.34
2022-09-28T14:00:20.388Z,100721.94
2022-09-28T14:03:01.956Z,100723.63
2022-09-28T14:05:54.896Z,100726.09
2022-09-28T14:08:40.931Z,100715.59
2022-09-28T14:11:59.422Z,100722.56
2022-09-28T14:14:52.127Z,100725.50
2022-09-28T14:18:06.231Z,100724.38
2022-09-28T14:20:39.327Z,100727.28
2022-09-28T14:23:45.850Z,100731.81
2022-09-28T14:27:12.334Z,100721.69
2022-09-28T14:29:43.803Z,100731.94
2022-09-28T14:32:37.855Z,100728.28
2022-09-28T14:35:22.387Z,100731.56
2022-09-28T14:38:17.140Z,100721.03
2022-09-28T14:41:13.255Z,100729.66
2022-09-28T14:44:09.591Z,100730.91
2022-09-28T14:46:47.735Z,100724.03
2022-09-28T14:50:03.265Z,100732.63
2022-09-28T14:52:49.399Z,100736.72
2022-09-28T14:55:28.067Z,100727.03
2022-09-28T14:58:01.834Z,100728.69
2022-09-28T15:00:33.569Z,100731.53
2022-09-28T15:03:12.116Z,100735.19
2022-09-28T15:05:48.736Z,100735.19
2022-09-28T15:08:36.583Z,100741.72
2022-09-28T15:11:07.100Z,100731.13
2022-09-28T15:13:41.038Z,100750.66
2022-09-28T15:16:15.785Z,100750.66
2022-09-28T15:19:23.349Z,100744.16
2022-09-28T15:21:54.194Z,100745.78
2022-09-28T15:24:34.057Z,100750.69
2022-09-28T15:27:05.661Z,100750.31
2022-09-28T15:29:36.055Z,100745.44
2022-09-28T15:32:06.773Z,100751.13
2022-09-28T15:34:52.949Z,100754.84
2022-09-28T15:37:26.840Z,100748.78
2022-09-28T15:40:01.749Z,100753.72
2022-09-28T15:42:39.445Z,100755.38
2022-09-28T15:45:29.994Z,100754.19
2022-09-28T15:48:26.604Z,100768.88
2022-09-28T15:51:10.809Z,100763.97
2022-09-28T15:53:54.325Z,100771.75
2022-09-28T15:56:27.187Z,100773.75
2022-09-28T15:59:19.700Z,100770.91
2022-09-28T16:01:51.145Z,100775.81
2022-09-28T16:04:48.326Z,100773.31
2022-09-28T16:07:38.895Z,100769.69
2022-09-28T16:10:36.215Z,100773.31
2022-09-28T16:13:21.030Z,100777.00
2022-09-28T16:16:01.324Z,100773.31
2022-09-28T16:18:34.718Z,100774.59
2022-09-28T16:21:38.880Z,100779.91
2022-09-28T16:24:10.509Z,100770.97
2022-09-28T16:26:42.900Z,100776.66
2022-09-28T16:29:37.043Z,100772.97
2022-09-28T16:32:42.450Z,100778.31
2022-09-28T16:35:32.450Z,100782.41
2022-09-28T16:38:14.974Z,100788.09
2022-09-28T16:40:48.381Z,100783.63
2022-09-28T16:43:27.358Z,100790.13
2022-09-28T16:46:02.832Z,100786.50
2022-09-28T16:48:36.899Z,100793.81
2022-09-28T16:51:07.764Z,100796.66
2022-09-28T16:53:56.049Z,100803.16
2022-09-28T16:56:26.294Z,100794.59
2022-09-28T16:58:57.108Z,100793.81
2022-09-28T17:01:32.577Z,100794.19
2022-09-28T17:04:03.123Z,100798.28
2022-09-28T17:06:34.463Z,100805.59
2022-09-28T17:09:07.329Z,100806.41
2022-09-28T17:11:38.014Z,100807.63
2022-09-28T17:14:09.385Z,100807.63
2022-09-28T17:17:06.992Z,100799.91
2022-09-28T17:19:33.146Z,100804.78
2022-09-28T17:22:03.872Z,100802.38
2022-09-28T17:24:34.590Z,100799.50
2022-09-28T17:27:07.398Z,100796.66
2022-09-28T17:29:37.944Z,100803.97
2022-09-28T17:32:20.720Z,100799.50
2022-09-28T17:35:00.777Z,100805.63
2022-09-28T17:37:38.774Z,100804.78
2022-09-28T17:40:21.615Z,100801.94
2022-09-28T17:42:55.395Z,100793.00
2022-09-28T17:45:27.396Z,100797.06
2022-09-28T17:48:00.288Z,100793.81
2022-09-28T17:50:33.354Z,100802.78
2022-09-28T17:53:06.836Z,100795.06
2022-09-28T17:55:40.613Z,100789.75
2022-09-28T17:58:21.841Z,100798.75
2022-09-28T18:00:53.904Z,100797.94
2022-09-28T18:03:27.755Z,100796.31
2022-09-28T18:06:05.264Z,100797.94
2022-09-28T18:08:35.820Z,100794.69
2022-09-28T18:11:06.629Z,100805.28
2022-09-28T18:13:38.586Z,100807.34
2022-09-28T18:16:10.879Z,100807.75
2022-09-28T18:18:42.886Z,100806.94
2022-09-28T18:21:13.491Z,100805.31
2022-09-28T18:23:44.017Z,100803.28
2022-09-28T18:26:16.352Z,100809.78
2022-09-28T18:28:46.871Z,100813.88
2022-09-28T18:31:19.576Z,100808.59
2022-09-28T18:33:52.514Z,100814.69
2022-09-28T18:36:23.371Z,100809.00
2022-09-28T18:38:53.897Z,100810.25
2022-09-28T18:41:24.527Z,100815.13
2022-09-28T18:44:01.031Z,100817.19
2022-09-28T18:46:36.895Z,100809.88
2022-09-28T18:49:08.629Z,100815.56
2022-09-28T18:51:39.113Z,100811.09
2022-09-28T18:54:09.805Z,100806.63
2022-09-28T18:56:40.411Z,100813.13
2022-09-28T18:59:12.925Z,100809.47
2022-09-28T19:01:44.343Z,100812.31
2022-09-28T19:04:16.983Z,100813.53
2022-09-28T19:06:52.088Z,100804.19
2022-09-28T19:09:25.064Z,100806.22
2022-09-28T19:11:55.601Z,100810.31
2022-09-28T19:14:26.091Z,100808.69
2022-09-28T19:16:56.117Z,100809.94
2022-09-28T19:19:29.771Z,100807.09
2022-09-28T19:22:00.381Z,100812.41
2022-09-28T19:24:30.864Z,100812.41
2022-09-28T19:27:00.769Z,100806.31
2022-09-28T19:29:32.766Z,100805.06
2022-09-28T19:32:03.129Z,100807.09
2022-09-28T19:34:35.118Z,100809.16
2022-09-28T19:37:05.256Z,100801.81
2022-09-28T19:39:35.749Z,100808.31
2022-09-28T19:42:06.331Z,100808.75
2022-09-28T19:44:44.271Z,100815.28
2022-09-28T19:47:14.925Z,100820.16
2022-09-28T19:49:47.183Z,100813.66
2022-09-28T19:52:18.094Z,100812.84
2022-09-28T19:54:52.430Z,100817.31
2022-09-28T19:57:23.094Z,100817.75
2022-09-28T19:59:57.865Z,100815.69
2022-09-28T20:02:31.570Z,100816.13
2022-09-28T20:05:04.448Z,100816.50
2022-09-28T20:07:40.137Z,100817.34
2022-09-28T20:10:12.268Z,100818.13
2022-09-28T20:12:44.321Z,100821.00
2022-09-28T20:15:15.564Z,100819.41
2022-09-28T20:17:45.146Z,100825.09
2022-09-28T20:20:19.129Z,100818.56
2022-09-28T20:22:48.895Z,100821.84
2022-09-28T20:25:19.419Z,100825.94
2022-09-28T20:27:50.239Z,100824.31
2022-09-28T20:30:21.087Z,100826.31
2022-09-28T20:32:51.167Z,100819.03
2022-09-28T20:35:32.563Z,100828.38
2022-09-28T20:38:09.433Z,100827.97
2022-09-28T20:40:40.616Z,100825.13
2022-09-28T20:43:11.690Z,100829.22
2022-09-28T20:45:42.226Z,100826.78
2022-09-28T20:48:12.612Z,100825.16
2022-09-28T20:50:45.499Z,100821.53
2022-09-28T20:53:16.208Z,100823.97
2022-09-28T20:55:46.388Z,100817.44
2022-09-28T20:58:17.304Z,100808.91
2022-09-28T21:00:48.088Z,100805.25
2022-09-28T21:03:18.515Z,100801.97
2022-09-28T21:05:53.471Z,100809.72
2022-09-28T21:08:26.198Z,100817.44
2022-09-28T21:10:56.183Z,100813.81
2022-09-28T21:13:27.919Z,100816.66
2022-09-28T21:15:58.691Z,100814.22
2022-09-28T21:18:29.357Z,100822.34
2022-09-28T21:21:01.544Z,100815.81
2022-09-28T21:23:31.868Z,100813.84
2022-09-28T21:26:07.704Z,100815.47
2022-09-28T21:28:40.162Z,100818.34
2022-09-28T21:31:13.739Z,100817.16
2022-09-28T21:33:43.797Z,100821.22
2022-09-28T21:36:16.176Z,100809.03
2022-09-28T21:38:46.930Z,100808.22
2022-09-28T21:41:17.198Z,100805.34
2022-09-28T21:43:48.560Z,100813.91
2022-09-28T21:46:19.292Z,100810.25
2022-09-28T21:48:54.417Z,100809.44
2022-09-28T21:51:26.500Z,100813.09
2022-09-28T21:53:56.962Z,100809.44
2022-09-28T21:56:27.765Z,100809.88
2022-09-28T21:58:58.197Z,100809.88
2022-09-28T22:01:28.200Z,100813.50
2022-09-28T22:03:59.847Z,100807.00
2022-09-28T22:06:32.119Z,100808.63
2022-09-28T22:09:03.103Z,100811.47
2022-09-28T22:11:33.412Z,100809.06
2022-09-28T22:14:03.593Z,100804.59
2022-09-28T22:16:34.667Z,100811.09
2022-09-28T22:19:05.125Z,100811.50
2022-09-28T22:21:37.389Z,100811.53
2022-09-28T22:24:09.269Z,100817.63
2022-09-28T22:26:40.670Z,100813.59
2022-09-28T22:29:12.542Z,100814.03
2022-09-28T22:31:44.583Z,100818.09
2022-09-28T22:34:15.230Z,100817.69
2022-09-28T22:36:47.213Z,100809.16
2022-09-28T22:39:17.783Z,100814.06
2022-09-28T22:41:48.360Z,100811.22
2022-09-28T22:44:19.590Z,100812.78
2022-09-28T22:46:50.320Z,100803.47
2022-09-28T22:49:21.079Z,100810.38
2022-09-28T22:51:54.171Z,100809.16
2022-09-28T22:54:24.746Z,100807.09
2022-09-28T22:56:55.285Z,100804.25
2022-09-28T22:59:25.634Z,100804.69
2022-09-28T23:01:56.482Z,100802.66
2022-09-28T23:04:26.964Z,100801.03
2022-09-28T23:06:59.558Z,100806.72
2022-09-28T23:09:30.270Z,100806.72
2022-09-28T23:12:00.674Z,100809.59
2022-09-28T23:14:31.120Z,100798.19
2022-09-28T23:17:01.145Z,100799.41
2022-09-28T23:19:31.269Z,100793.72
2022-09-28T23:22:03.926Z,100800.22
2022-09-28T23:24:34.534Z,100790.03
2022-09-28T23:27:04.439Z,100799.41
2022-09-28T23:29:34.580Z,100799.81
2022-09-28T23:32:05.218Z,100795.34
2022-09-28T23:34:35.746Z,100795.78
2022-09-28T23:37:08.626Z,100799.84
2022-09-28T23:39:38.940Z,100801.50
2022-09-28T23:42:09.106Z,100803.94
2022-09-28T23:44:39.211Z,100798.69
2022-09-28T23:47:10.026Z,100794.63
2022-09-28T23:49:40.395Z,100798.69
2022-09-28T23:52:12.469Z,100801.13
2022-09-28T23:54:43.083Z,100791.38
2022-09-28T23:57:13.161Z,100801.56
2022-09-28T23:59:43.443Z,100801.16
